sensor_id;sensor_type;location;lat;lon;timestamp;P1;durP1;ratioP1;P2;durP2;ratioP2
63112;SDS011;49206;48.020;21.378;2023-07-20T00:00:21;8.13;;;5.40;;
63112;SDS011;49206;48.020;21.378;2023-07-20T00:01:24;7.20;;;5.05;;
63112;SDS011;49206;48.020;21.378;2023-07-20T00:02:27;8.95;;;6.35;;
63112;SDS011;49206;48.020;21.378;2023-07-20T00:03:30;8.05;;;5.45;;
63112;SDS011;49206;48.020;21.378;2023-07-20T00:04:33;6.72;;;5.43;;
63112;SDS011;49206;48.020;21.378;2023-07-20T00:05:36;9.15;;;5.63;;
63112;SDS011;49206;48.020;21.378;2023-07-20T00:06:39;7.35;;;5.22;;
63112;SDS011;49206;48.020;21.378;2023-07-20T00:07:42;9.05;;;5.78;;
63112;SDS011;49206;48.020;21.378;2023-07-20T00:08:45;8.35;;;5.53;;
63112;SDS011;49206;48.020;21.378;2023-07-20T00:09:48;8.52;;;5.80;;
63112;SDS011;49206;48.020;21.378;2023-07-20T00:10:50;7.20;;;5.38;;
63112;SDS011;49206;48.020;21.378;2023-07-20T00:11:53;8.35;;;5.47;;
63112;SDS011;49206;48.020;21.378;2023-07-20T00:12:56;6.43;;;5.47;;
63112;SDS011;49206;48.020;21.378;2023-07-20T00:13:59;9.20;;;5.72;;
63112;SDS011;49206;48.020;21.378;2023-07-20T00:15:02;9.20;;;5.57;;
63112;SDS011;49206;48.020;21.378;2023-07-20T00:16:05;8.23;;;5.85;;
63112;SDS011;49206;48.020;21.378;2023-07-20T00:17:08;9.23;;;5.20;;
63112;SDS011;49206;48.020;21.378;2023-07-20T00:18:11;9.55;;;5.60;;
63112;SDS011;49206;48.020;21.378;2023-07-20T00:19:13;7.35;;;5.65;;
63112;SDS011;49206;48.020;21.378;2023-07-20T00:20:16;8.05;;;5.78;;
63112;SDS011;49206;48.020;21.378;2023-07-20T00:21:20;7.60;;;5.50;;
63112;SDS011;49206;48.020;21.378;2023-07-20T00:22:23;7.30;;;5.53;;
63112;SDS011;49206;48.020;21.378;2023-07-20T00:23:25;7.70;;;5.40;;
63112;SDS011;49206;48.020;21.378;2023-07-20T00:24:29;8.70;;;5.35;;
63112;SDS011;49206;48.020;21.378;2023-07-20T00:25:32;8.50;;;5.68;;
63112;SDS011;49206;48.020;21.378;2023-07-20T00:26:35;7.18;;;5.05;;
63112;SDS011;49206;48.020;21.378;2023-07-20T00:27:38;8.32;;;5.40;;
63112;SDS011;49206;48.020;21.378;2023-07-20T00:28:41;7.07;;;5.53;;
63112;SDS011;49206;48.020;21.378;2023-07-20T00:29:44;8.35;;;5.18;;
63112;SDS011;49206;48.020;21.378;2023-07-20T00:30:47;10.98;;;6.05;;
63112;SDS011;49206;48.020;21.378;2023-07-20T00:31:49;7.85;;;5.85;;
63112;SDS011;49206;48.020;21.378;2023-07-20T00:32:53;12.57;;;6.28;;
63112;SDS011;49206;48.020;21.378;2023-07-20T00:33:57;7.32;;;5.07;;
63112;SDS011;49206;48.020;21.378;2023-07-20T00:35:00;9.43;;;5.85;;
63112;SDS011;49206;48.020;21.378;2023-07-20T00:36:03;7.38;;;5.45;;
63112;SDS011;49206;48.020;21.378;2023-07-20T00:37:06;8.35;;;5.50;;
63112;SDS011;49206;48.020;21.378;2023-07-20T00:38:09;6.45;;;5.47;;
63112;SDS011;49206;48.020;21.378;2023-07-20T00:39:13;8.88;;;5.40;;
63112;SDS011;49206;48.020;21.378;2023-07-20T00:40:15;8.05;;;5.78;;
63112;SDS011;49206;48.020;21.378;2023-07-20T00:41:20;9.82;;;5.80;;
63112;SDS011;49206;48.020;21.378;2023-07-20T00:42:23;8.32;;;5.40;;
63112;SDS011;49206;48.020;21.378;2023-07-20T00:43:26;7.82;;;6.30;;
63112;SDS011;49206;48.020;21.378;2023-07-20T00:44:29;6.70;;;5.38;;
63112;SDS011;49206;48.020;21.378;2023-07-20T00:45:32;8.95;;;5.80;;
63112;SDS011;49206;48.020;21.378;2023-07-20T00:46:37;7.45;;;5.40;;
63112;SDS011;49206;48.020;21.378;2023-07-20T00:48:44;8.82;;;5.93;;
63112;SDS011;49206;48.020;21.378;2023-07-20T00:49:46;10.77;;;6.47;;
63112;SDS011;49206;48.020;21.378;2023-07-20T00:50:50;7.13;;;5.35;;
63112;SDS011;49206;48.020;21.378;2023-07-20T00:51:53;11.88;;;6.30;;
63112;SDS011;49206;48.020;21.378;2023-07-20T00:52:56;9.30;;;5.93;;
63112;SDS011;49206;48.020;21.378;2023-07-20T00:53:59;10.52;;;6.53;;
63112;SDS011;49206;48.020;21.378;2023-07-20T00:55:02;11.43;;;6.13;;
63112;SDS011;49206;48.020;21.378;2023-07-20T00:56:05;8.00;;;6.05;;
63112;SDS011;49206;48.020;21.378;2023-07-20T00:57:10;13.40;;;6.60;;
63112;SDS011;49206;48.020;21.378;2023-07-20T00:58:16;8.05;;;6.20;;
63112;SDS011;49206;48.020;21.378;2023-07-20T00:59:19;8.30;;;6.40;;
63112;SDS011;49206;48.020;21.378;2023-07-20T01:00:22;9.65;;;6.78;;
63112;SDS011;49206;48.020;21.378;2023-07-20T01:01:25;12.40;;;7.32;;
63112;SDS011;49206;48.020;21.378;2023-07-20T01:02:28;9.20;;;5.97;;
63112;SDS011;49206;48.020;21.378;2023-07-20T01:03:30;10.75;;;6.60;;
63112;SDS011;49206;48.020;21.378;2023-07-20T01:04:33;9.15;;;6.60;;
63112;SDS011;49206;48.020;21.378;2023-07-20T01:05:40;9.75;;;6.18;;
63112;SDS011;49206;48.020;21.378;2023-07-20T01:06:52;10.27;;;6.45;;
63112;SDS011;49206;48.020;21.378;2023-07-20T01:08:35;11.27;;;6.20;;
63112;SDS011;49206;48.020;21.378;2023-07-20T01:09:42;11.10;;;6.47;;
63112;SDS011;49206;48.020;21.378;2023-07-20T01:10:50;8.68;;;6.78;;
63112;SDS011;49206;48.020;21.378;2023-07-20T01:11:59;11.65;;;6.47;;
63112;SDS011;49206;48.020;21.378;2023-07-20T01:13:07;8.30;;;6.57;;
63112;SDS011;49206;48.020;21.378;2023-07-20T01:14:13;11.18;;;6.60;;
63112;SDS011;49206;48.020;21.378;2023-07-20T01:15:16;10.10;;;6.10;;
63112;SDS011;49206;48.020;21.378;2023-07-20T01:16:19;9.80;;;6.43;;
63112;SDS011;49206;48.020;21.378;2023-07-20T01:17:23;8.15;;;5.93;;
63112;SDS011;49206;48.020;21.378;2023-07-20T01:19:29;7.97;;;6.45;;
63112;SDS011;49206;48.020;21.378;2023-07-20T01:20:33;11.27;;;6.55;;
63112;SDS011;49206;48.020;21.378;2023-07-20T01:21:48;9.65;;;5.82;;
63112;SDS011;49206;48.020;21.378;2023-07-20T01:28:55;7.03;;;5.50;;
63112;SDS011;49206;48.020;21.378;2023-07-20T01:31:37;9.05;;;6.03;;
63112;SDS011;49206;48.020;21.378;2023-07-20T01:32:41;9.68;;;5.75;;
63112;SDS011;49206;48.020;21.378;2023-07-20T01:33:45;7.28;;;6.35;;
63112;SDS011;49206;48.020;21.378;2023-07-20T01:34:49;8.27;;;6.30;;
63112;SDS011;49206;48.020;21.378;2023-07-20T01:35:56;8.10;;;6.63;;
63112;SDS011;49206;48.020;21.378;2023-07-20T01:37:00;9.20;;;6.35;;
63112;SDS011;49206;48.020;21.378;2023-07-20T01:38:03;11.25;;;6.85;;
63112;SDS011;49206;48.020;21.378;2023-07-20T01:39:07;8.40;;;6.78;;
63112;SDS011;49206;48.020;21.378;2023-07-20T01:40:11;8.55;;;6.65;;
63112;SDS011;49206;48.020;21.378;2023-07-20T01:41:16;9.15;;;6.53;;
63112;SDS011;49206;48.020;21.378;2023-07-20T01:42:19;11.10;;;7.28;;
63112;SDS011;49206;48.020;21.378;2023-07-20T01:43:24;8.43;;;7.03;;
63112;SDS011;49206;48.020;21.378;2023-07-20T01:44:27;12.25;;;7.15;;
63112;SDS011;49206;48.020;21.378;2023-07-20T01:45:30;10.68;;;6.72;;
63112;SDS011;49206;48.020;21.378;2023-07-20T01:46:33;11.43;;;6.90;;
63112;SDS011;49206;48.020;21.378;2023-07-20T01:47:36;10.25;;;7.53;;
63112;SDS011;49206;48.020;21.378;2023-07-20T01:48:39;9.63;;;6.68;;
63112;SDS011;49206;48.020;21.378;2023-07-20T01:49:42;9.35;;;8.05;;
63112;SDS011;49206;48.020;21.378;2023-07-20T01:50:45;11.40;;;7.28;;
63112;SDS011;49206;48.020;21.378;2023-07-20T01:51:50;10.23;;;7.25;;
63112;SDS011;49206;48.020;21.378;2023-07-20T01:52:53;12.02;;;7.65;;
63112;SDS011;49206;48.020;21.378;2023-07-20T01:53:56;11.07;;;7.15;;
63112;SDS011;49206;48.020;21.378;2023-07-20T01:54:59;10.80;;;7.70;;
63112;SDS011;49206;48.020;21.378;2023-07-20T01:56:02;11.43;;;7.22;;
63112;SDS011;49206;48.020;21.378;2023-07-20T01:57:05;10.73;;;7.72;;
63112;SDS011;49206;48.020;21.378;2023-07-20T01:58:08;11.20;;;7.13;;
63112;SDS011;49206;48.020;21.378;2023-07-20T01:59:11;11.05;;;6.93;;
63112;SDS011;49206;48.020;21.378;2023-07-20T02:00:13;12.00;;;7.05;;
63112;SDS011;49206;48.020;21.378;2023-07-20T02:01:16;9.30;;;6.90;;
63112;SDS011;49206;48.020;21.378;2023-07-20T02:02:19;9.48;;;7.72;;
63112;SDS011;49206;48.020;21.378;2023-07-20T02:03:23;11.10;;;7.03;;
63112;SDS011;49206;48.020;21.378;2023-07-20T02:04:29;9.25;;;6.50;;
63112;SDS011;49206;48.020;21.378;2023-07-20T02:05:33;10.65;;;8.25;;
63112;SDS011;49206;48.020;21.378;2023-07-20T02:06:36;10.88;;;7.53;;
63112;SDS011;49206;48.020;21.378;2023-07-20T02:07:39;10.63;;;7.20;;
63112;SDS011;49206;48.020;21.378;2023-07-20T02:08:42;9.90;;;6.47;;
63112;SDS011;49206;48.020;21.378;2023-07-20T02:09:45;12.07;;;7.30;;
63112;SDS011;49206;48.020;21.378;2023-07-20T02:10:48;10.75;;;6.82;;
63112;SDS011;49206;48.020;21.378;2023-07-20T02:11:51;10.65;;;7.70;;
63112;SDS011;49206;48.020;21.378;2023-07-20T02:12:55;10.80;;;7.35;;
63112;SDS011;49206;48.020;21.378;2023-07-20T02:13:58;12.10;;;8.15;;
63112;SDS011;49206;48.020;21.378;2023-07-20T02:15:03;10.95;;;7.22;;
63112;SDS011;49206;48.020;21.378;2023-07-20T02:16:06;11.38;;;7.57;;
63112;SDS011;49206;48.020;21.378;2023-07-20T02:17:09;14.82;;;8.18;;
63112;SDS011;49206;48.020;21.378;2023-07-20T02:18:15;11.85;;;7.75;;
63112;SDS011;49206;48.020;21.378;2023-07-20T02:19:18;11.30;;;7.50;;
63112;SDS011;49206;48.020;21.378;2023-07-20T02:20:21;11.05;;;7.85;;
63112;SDS011;49206;48.020;21.378;2023-07-20T02:21:24;10.63;;;7.72;;
63112;SDS011;49206;48.020;21.378;2023-07-20T02:22:27;11.98;;;6.85;;
63112;SDS011;49206;48.020;21.378;2023-07-20T02:23:30;13.80;;;7.80;;
63112;SDS011;49206;48.020;21.378;2023-07-20T02:24:33;9.73;;;7.07;;
63112;SDS011;49206;48.020;21.378;2023-07-20T02:25:36;9.63;;;6.63;;
63112;SDS011;49206;48.020;21.378;2023-07-20T02:26:39;10.32;;;7.85;;
63112;SDS011;49206;48.020;21.378;2023-07-20T02:27:42;10.00;;;7.13;;
63112;SDS011;49206;48.020;21.378;2023-07-20T02:28:45;11.05;;;7.50;;
63112;SDS011;49206;48.020;21.378;2023-07-20T02:29:48;14.70;;;7.28;;
63112;SDS011;49206;48.020;21.378;2023-07-20T02:30:51;12.20;;;7.28;;
63112;SDS011;49206;48.020;21.378;2023-07-20T02:31:54;10.75;;;7.30;;
63112;SDS011;49206;48.020;21.378;2023-07-20T02:32:57;12.18;;;7.90;;
63112;SDS011;49206;48.020;21.378;2023-07-20T02:34:01;10.00;;;7.35;;
63112;SDS011;49206;48.020;21.378;2023-07-20T02:35:04;11.35;;;8.00;;
63112;SDS011;49206;48.020;21.378;2023-07-20T02:36:07;11.93;;;7.63;;
63112;SDS011;49206;48.020;21.378;2023-07-20T02:37:10;16.25;;;8.23;;
63112;SDS011;49206;48.020;21.378;2023-07-20T02:38:16;12.63;;;7.53;;
63112;SDS011;49206;48.020;21.378;2023-07-20T02:39:19;11.07;;;7.85;;
63112;SDS011;49206;48.020;21.378;2023-07-20T02:40:21;10.63;;;7.70;;
63112;SDS011;49206;48.020;21.378;2023-07-20T02:43:30;10.35;;;6.75;;
63112;SDS011;49206;48.020;21.378;2023-07-20T02:44:33;13.95;;;7.32;;
63112;SDS011;49206;48.020;21.378;2023-07-20T02:45:39;11.20;;;7.57;;
63112;SDS011;49206;48.020;21.378;2023-07-20T02:46:43;11.55;;;7.65;;
63112;SDS011;49206;48.020;21.378;2023-07-20T02:47:46;11.93;;;7.00;;
63112;SDS011;49206;48.020;21.378;2023-07-20T02:48:49;12.40;;;7.57;;
63112;SDS011;49206;48.020;21.378;2023-07-20T02:49:52;9.55;;;7.55;;
63112;SDS011;49206;48.020;21.378;2023-07-20T02:50:55;10.15;;;7.30;;
63112;SDS011;49206;48.020;21.378;2023-07-20T02:51:58;11.95;;;8.52;;
63112;SDS011;49206;48.020;21.378;2023-07-20T02:53:01;10.38;;;7.22;;
63112;SDS011;49206;48.020;21.378;2023-07-20T02:54:04;11.38;;;7.50;;
63112;SDS011;49206;48.020;21.378;2023-07-20T02:55:07;11.75;;;7.53;;
63112;SDS011;49206;48.020;21.378;2023-07-20T02:56:10;12.68;;;8.60;;
63112;SDS011;49206;48.020;21.378;2023-07-20T02:57:13;11.50;;;7.93;;
63112;SDS011;49206;48.020;21.378;2023-07-20T02:58:16;16.15;;;7.75;;
63112;SDS011;49206;48.020;21.378;2023-07-20T02:59:19;12.50;;;7.65;;
63112;SDS011;49206;48.020;21.378;2023-07-20T03:00:22;10.68;;;7.55;;
63112;SDS011;49206;48.020;21.378;2023-07-20T03:01:25;11.73;;;8.40;;
63112;SDS011;49206;48.020;21.378;2023-07-20T03:02:32;10.85;;;7.53;;
63112;SDS011;49206;48.020;21.378;2023-07-20T03:03:36;12.63;;;8.02;;
63112;SDS011;49206;48.020;21.378;2023-07-20T03:04:41;10.73;;;7.68;;
63112;SDS011;49206;48.020;21.378;2023-07-20T03:05:44;13.25;;;7.93;;
63112;SDS011;49206;48.020;21.378;2023-07-20T03:06:47;11.18;;;8.07;;
63112;SDS011;49206;48.020;21.378;2023-07-20T03:07:50;9.85;;;7.88;;
63112;SDS011;49206;48.020;21.378;2023-07-20T03:08:53;15.25;;;8.32;;
63112;SDS011;49206;48.020;21.378;2023-07-20T03:09:56;14.57;;;8.27;;
63112;SDS011;49206;48.020;21.378;2023-07-20T03:10:59;12.43;;;7.85;;
63112;SDS011;49206;48.020;21.378;2023-07-20T03:12:04;11.88;;;7.53;;
63112;SDS011;49206;48.020;21.378;2023-07-20T03:13:07;11.35;;;7.70;;
63112;SDS011;49206;48.020;21.378;2023-07-20T03:14:10;14.90;;;8.40;;
63112;SDS011;49206;48.020;21.378;2023-07-20T03:15:14;11.90;;;8.23;;
63112;SDS011;49206;48.020;21.378;2023-07-20T03:16:18;11.00;;;8.07;;
63112;SDS011;49206;48.020;21.378;2023-07-20T03:17:23;12.93;;;8.02;;
63112;SDS011;49206;48.020;21.378;2023-07-20T03:18:25;18.67;;;8.25;;
63112;SDS011;49206;48.020;21.378;2023-07-20T03:19:29;11.80;;;8.30;;
63112;SDS011;49206;48.020;21.378;2023-07-20T03:20:34;11.90;;;7.90;;
63112;SDS011;49206;48.020;21.378;2023-07-20T03:21:38;11.73;;;7.75;;
63112;SDS011;49206;48.020;21.378;2023-07-20T03:22:43;13.35;;;8.93;;
63112;SDS011;49206;48.020;21.378;2023-07-20T03:23:46;14.27;;;9.40;;
63112;SDS011;49206;48.020;21.378;2023-07-20T03:24:49;12.45;;;8.55;;
63112;SDS011;49206;48.020;21.378;2023-07-20T03:25:53;12.27;;;9.27;;
63112;SDS011;49206;48.020;21.378;2023-07-20T03:26:58;11.55;;;8.63;;
63112;SDS011;49206;48.020;21.378;2023-07-20T03:28:01;12.13;;;8.63;;
63112;SDS011;49206;48.020;21.378;2023-07-20T03:29:04;13.18;;;9.00;;
63112;SDS011;49206;48.020;21.378;2023-07-20T03:30:09;13.15;;;8.82;;
63112;SDS011;49206;48.020;21.378;2023-07-20T03:31:13;13.20;;;8.18;;
63112;SDS011;49206;48.020;21.378;2023-07-20T03:32:17;10.95;;;7.57;;
63112;SDS011;49206;48.020;21.378;2023-07-20T03:33:21;11.43;;;8.50;;
63112;SDS011;49206;48.020;21.378;2023-07-20T03:34:28;12.27;;;8.10;;
63112;SDS011;49206;48.020;21.378;2023-07-20T03:35:31;13.75;;;7.90;;
63112;SDS011;49206;48.020;21.378;2023-07-20T03:36:33;11.43;;;8.02;;
63112;SDS011;49206;48.020;21.378;2023-07-20T03:37:36;11.27;;;7.55;;
63112;SDS011;49206;48.020;21.378;2023-07-20T03:38:40;11.23;;;7.75;;
63112;SDS011;49206;48.020;21.378;2023-07-20T03:39:43;12.43;;;8.38;;
63112;SDS011;49206;48.020;21.378;2023-07-20T03:40:49;13.32;;;8.00;;
63112;SDS011;49206;48.020;21.378;2023-07-20T03:41:58;10.23;;;7.55;;
63112;SDS011;49206;48.020;21.378;2023-07-20T03:43:01;9.13;;;6.80;;
63112;SDS011;49206;48.020;21.378;2023-07-20T03:44:04;12.07;;;6.97;;
63112;SDS011;49206;48.020;21.378;2023-07-20T03:45:07;12.57;;;6.80;;
63112;SDS011;49206;48.020;21.378;2023-07-20T03:46:10;12.02;;;6.93;;
63112;SDS011;49206;48.020;21.378;2023-07-20T03:47:13;11.88;;;6.75;;
63112;SDS011;49206;48.020;21.378;2023-07-20T03:48:16;9.18;;;6.78;;
63112;SDS011;49206;48.020;21.378;2023-07-20T03:49:19;10.40;;;7.47;;
63112;SDS011;49206;48.020;21.378;2023-07-20T03:50:23;13.73;;;7.55;;
63112;SDS011;49206;48.020;21.378;2023-07-20T03:51:26;10.93;;;6.95;;
63112;SDS011;49206;48.020;21.378;2023-07-20T03:52:29;13.60;;;7.30;;
63112;SDS011;49206;48.020;21.378;2023-07-20T03:53:31;9.00;;;6.68;;
63112;SDS011;49206;48.020;21.378;2023-07-20T03:54:35;10.82;;;7.50;;
63112;SDS011;49206;48.020;21.378;2023-07-20T03:55:38;9.48;;;6.60;;
63112;SDS011;49206;48.020;21.378;2023-07-20T03:56:43;10.23;;;6.82;;
63112;SDS011;49206;48.020;21.378;2023-07-20T03:57:45;10.93;;;7.18;;
63112;SDS011;49206;48.020;21.378;2023-07-20T03:58:48;16.33;;;7.88;;
63112;SDS011;49206;48.020;21.378;2023-07-20T03:59:51;8.85;;;6.47;;
63112;SDS011;49206;48.020;21.378;2023-07-20T04:00:54;8.48;;;6.93;;
63112;SDS011;49206;48.020;21.378;2023-07-20T04:01:58;9.63;;;6.43;;
63112;SDS011;49206;48.020;21.378;2023-07-20T04:03:01;14.00;;;7.05;;
63112;SDS011;49206;48.020;21.378;2023-07-20T04:04:06;8.95;;;6.25;;
63112;SDS011;49206;48.020;21.378;2023-07-20T04:05:10;9.70;;;6.43;;
63112;SDS011;49206;48.020;21.378;2023-07-20T04:06:13;11.85;;;6.53;;
63112;SDS011;49206;48.020;21.378;2023-07-20T04:07:16;10.48;;;6.60;;
63112;SDS011;49206;48.020;21.378;2023-07-20T04:08:19;9.15;;;6.45;;
63112;SDS011;49206;48.020;21.378;2023-07-20T04:09:22;13.82;;;6.32;;
63112;SDS011;49206;48.020;21.378;2023-07-20T04:10:25;10.65;;;6.90;;
63112;SDS011;49206;48.020;21.378;2023-07-20T04:11:28;11.18;;;6.60;;
63112;SDS011;49206;48.020;21.378;2023-07-20T04:12:30;10.38;;;6.97;;
63112;SDS011;49206;48.020;21.378;2023-07-20T04:13:33;9.57;;;6.55;;
63112;SDS011;49206;48.020;21.378;2023-07-20T04:14:36;7.60;;;5.45;;
63112;SDS011;49206;48.020;21.378;2023-07-20T04:15:39;8.57;;;6.53;;
63112;SDS011;49206;48.020;21.378;2023-07-20T04:16:42;8.50;;;6.40;;
63112;SDS011;49206;48.020;21.378;2023-07-20T04:17:45;8.35;;;6.18;;
63112;SDS011;49206;48.020;21.378;2023-07-20T04:18:48;12.15;;;6.25;;
63112;SDS011;49206;48.020;21.378;2023-07-20T04:19:51;10.95;;;6.40;;
63112;SDS011;49206;48.020;21.378;2023-07-20T04:20:54;13.70;;;7.28;;
63112;SDS011;49206;48.020;21.378;2023-07-20T04:21:57;11.73;;;6.43;;
63112;SDS011;49206;48.020;21.378;2023-07-20T04:23:00;11.10;;;7.10;;
63112;SDS011;49206;48.020;21.378;2023-07-20T04:24:04;10.50;;;6.30;;
63112;SDS011;49206;48.020;21.378;2023-07-20T04:25:07;10.48;;;6.25;;
63112;SDS011;49206;48.020;21.378;2023-07-20T04:26:12;9.50;;;6.47;;
63112;SDS011;49206;48.020;21.378;2023-07-20T04:27:15;8.55;;;6.13;;
63112;SDS011;49206;48.020;21.378;2023-07-20T04:28:17;8.48;;;5.88;;
63112;SDS011;49206;48.020;21.378;2023-07-20T04:29:23;10.00;;;6.18;;
63112;SDS011;49206;48.020;21.378;2023-07-20T04:30:26;9.82;;;5.68;;
63112;SDS011;49206;48.020;21.378;2023-07-20T04:31:29;11.93;;;6.63;;
63112;SDS011;49206;48.020;21.378;2023-07-20T04:32:34;9.43;;;6.28;;
63112;SDS011;49206;48.020;21.378;2023-07-20T04:34:41;7.55;;;5.88;;
63112;SDS011;49206;48.020;21.378;2023-07-20T04:35:51;9.68;;;7.13;;
63112;SDS011;49206;48.020;21.378;2023-07-20T04:37:02;8.20;;;6.00;;
63112;SDS011;49206;48.020;21.378;2023-07-20T04:38:05;8.63;;;6.15;;
63112;SDS011;49206;48.020;21.378;2023-07-20T04:39:09;9.15;;;6.10;;
63112;SDS011;49206;48.020;21.378;2023-07-20T04:40:31;10.18;;;5.57;;
63112;SDS011;49206;48.020;21.378;2023-07-20T04:41:34;8.18;;;5.53;;
63112;SDS011;49206;48.020;21.378;2023-07-20T04:42:37;15.55;;;7.20;;
63112;SDS011;49206;48.020;21.378;2023-07-20T04:43:42;10.65;;;6.22;;
63112;SDS011;49206;48.020;21.378;2023-07-20T04:44:46;9.38;;;6.30;;
63112;SDS011;49206;48.020;21.378;2023-07-20T04:45:49;8.27;;;6.00;;
63112;SDS011;49206;48.020;21.378;2023-07-20T04:46:53;9.20;;;6.60;;
63112;SDS011;49206;48.020;21.378;2023-07-20T04:47:55;8.88;;;5.90;;
63112;SDS011;49206;48.020;21.378;2023-07-20T04:48:59;6.47;;;5.53;;
63112;SDS011;49206;48.020;21.378;2023-07-20T04:50:04;6.07;;;5.32;;
63112;SDS011;49206;48.020;21.378;2023-07-20T04:51:08;7.57;;;5.75;;
63112;SDS011;49206;48.020;21.378;2023-07-20T04:52:14;8.90;;;5.70;;
63112;SDS011;49206;48.020;21.378;2023-07-20T04:53:17;7.22;;;5.72;;
63112;SDS011;49206;48.020;21.378;2023-07-20T04:54:20;7.78;;;5.78;;
63112;SDS011;49206;48.020;21.378;2023-07-20T04:55:23;8.65;;;5.93;;
63112;SDS011;49206;48.020;21.378;2023-07-20T04:56:27;10.55;;;6.22;;
63112;SDS011;49206;48.020;21.378;2023-07-20T04:57:31;8.38;;;5.70;;
63112;SDS011;49206;48.020;21.378;2023-07-20T04:58:35;8.90;;;5.00;;
63112;SDS011;49206;48.020;21.378;2023-07-20T04:59:37;8.10;;;5.45;;
63112;SDS011;49206;48.020;21.378;2023-07-20T05:00:40;7.60;;;5.80;;
63112;SDS011;49206;48.020;21.378;2023-07-20T05:01:43;8.13;;;5.70;;
63112;SDS011;49206;48.020;21.378;2023-07-20T05:02:47;8.38;;;5.70;;
63112;SDS011;49206;48.020;21.378;2023-07-20T05:03:51;7.70;;;5.32;;
63112;SDS011;49206;48.020;21.378;2023-07-20T05:04:54;6.82;;;5.28;;
63112;SDS011;49206;48.020;21.378;2023-07-20T05:05:57;8.75;;;5.60;;
63112;SDS011;49206;48.020;21.378;2023-07-20T05:07:00;6.10;;;4.80;;
63112;SDS011;49206;48.020;21.378;2023-07-20T05:08:03;17.00;;;7.13;;
63112;SDS011;49206;48.020;21.378;2023-07-20T05:09:06;9.38;;;5.93;;
63112;SDS011;49206;48.020;21.378;2023-07-20T05:10:10;7.95;;;5.38;;
63112;SDS011;49206;48.020;21.378;2023-07-20T05:11:13;8.55;;;4.93;;
63112;SDS011;49206;48.020;21.378;2023-07-20T05:12:16;8.63;;;5.18;;
63112;SDS011;49206;48.020;21.378;2023-07-20T05:13:22;7.50;;;5.28;;
63112;SDS011;49206;48.020;21.378;2023-07-20T05:14:26;7.57;;;5.30;;
63112;SDS011;49206;48.020;21.378;2023-07-20T05:15:29;7.18;;;5.30;;
63112;SDS011;49206;48.020;21.378;2023-07-20T05:17:39;8.10;;;4.82;;
63112;SDS011;49206;48.020;21.378;2023-07-20T05:18:42;8.45;;;5.28;;
63112;SDS011;49206;48.020;21.378;2023-07-20T05:19:45;6.57;;;4.95;;
63112;SDS011;49206;48.020;21.378;2023-07-20T05:20:48;8.85;;;5.22;;
63112;SDS011;49206;48.020;21.378;2023-07-20T05:21:51;6.45;;;5.13;;
63112;SDS011;49206;48.020;21.378;2023-07-20T05:22:54;6.43;;;5.20;;
63112;SDS011;49206;48.020;21.378;2023-07-20T05:23:57;6.60;;;4.97;;
63112;SDS011;49206;48.020;21.378;2023-07-20T05:25:00;6.28;;;5.03;;
63112;SDS011;49206;48.020;21.378;2023-07-20T05:26:03;8.82;;;5.85;;
63112;SDS011;49206;48.020;21.378;2023-07-20T05:27:06;12.40;;;6.80;;
63112;SDS011;49206;48.020;21.378;2023-07-20T05:28:09;7.75;;;5.53;;
63112;SDS011;49206;48.020;21.378;2023-07-20T05:29:12;8.57;;;5.57;;
63112;SDS011;49206;48.020;21.378;2023-07-20T05:30:15;8.88;;;5.45;;
63112;SDS011;49206;48.020;21.378;2023-07-20T05:31:18;7.70;;;5.28;;
63112;SDS011;49206;48.020;21.378;2023-07-20T05:32:21;5.57;;;4.78;;
63112;SDS011;49206;48.020;21.378;2023-07-20T05:33:24;7.03;;;4.85;;
63112;SDS011;49206;48.020;21.378;2023-07-20T05:34:27;8.82;;;5.43;;
63112;SDS011;49206;48.020;21.378;2023-07-20T05:35:29;6.38;;;5.53;;
63112;SDS011;49206;48.020;21.378;2023-07-20T05:36:33;6.85;;;5.10;;
63112;SDS011;49206;48.020;21.378;2023-07-20T05:37:35;6.85;;;5.35;;
63112;SDS011;49206;48.020;21.378;2023-07-20T05:38:39;9.10;;;5.70;;
63112;SDS011;49206;48.020;21.378;2023-07-20T05:39:42;8.80;;;5.70;;
63112;SDS011;49206;48.020;21.378;2023-07-20T05:40:45;7.55;;;5.72;;
63112;SDS011;49206;48.020;21.378;2023-07-20T05:41:48;8.63;;;5.90;;
63112;SDS011;49206;48.020;21.378;2023-07-20T05:42:50;8.02;;;6.03;;
63112;SDS011;49206;48.020;21.378;2023-07-20T05:43:54;8.60;;;5.32;;
63112;SDS011;49206;48.020;21.378;2023-07-20T05:44:57;8.60;;;6.32;;
63112;SDS011;49206;48.020;21.378;2023-07-20T05:46:00;8.52;;;6.18;;
63112;SDS011;49206;48.020;21.378;2023-07-20T05:47:03;8.65;;;5.82;;
63112;SDS011;49206;48.020;21.378;2023-07-20T05:48:06;9.10;;;6.25;;
63112;SDS011;49206;48.020;21.378;2023-07-20T05:49:11;8.85;;;5.22;;
63112;SDS011;49206;48.020;21.378;2023-07-20T05:50:14;8.32;;;5.82;;
63112;SDS011;49206;48.020;21.378;2023-07-20T05:51:17;7.35;;;5.63;;
63112;SDS011;49206;48.020;21.378;2023-07-20T05:52:20;7.65;;;5.55;;
63112;SDS011;49206;48.020;21.378;2023-07-20T05:53:23;7.68;;;5.43;;
63112;SDS011;49206;48.020;21.378;2023-07-20T05:54:26;11.23;;;6.00;;
63112;SDS011;49206;48.020;21.378;2023-07-20T05:55:29;7.68;;;5.38;;
63112;SDS011;49206;48.020;21.378;2023-07-20T05:56:32;8.70;;;6.05;;
63112;SDS011;49206;48.020;21.378;2023-07-20T05:57:35;8.75;;;5.30;;
63112;SDS011;49206;48.020;21.378;2023-07-20T05:58:39;11.25;;;5.68;;
63112;SDS011;49206;48.020;21.378;2023-07-20T05:59:42;7.43;;;5.65;;
63112;SDS011;49206;48.020;21.378;2023-07-20T06:00:49;7.93;;;5.55;;
63112;SDS011;49206;48.020;21.378;2023-07-20T06:01:53;7.13;;;5.43;;
63112;SDS011;49206;48.020;21.378;2023-07-20T06:02:56;7.30;;;5.53;;
63112;SDS011;49206;48.020;21.378;2023-07-20T06:03:59;7.85;;;5.47;;
63112;SDS011;49206;48.020;21.378;2023-07-20T06:05:02;8.57;;;5.47;;
63112;SDS011;49206;48.020;21.378;2023-07-20T06:06:05;13.13;;;5.85;;
63112;SDS011;49206;48.020;21.378;2023-07-20T06:07:08;5.88;;;4.60;;
63112;SDS011;49206;48.020;21.378;2023-07-20T06:08:11;6.68;;;5.40;;
63112;SDS011;49206;48.020;21.378;2023-07-20T06:09:14;7.25;;;5.10;;
63112;SDS011;49206;48.020;21.378;2023-07-20T06:10:17;8.02;;;5.30;;
63112;SDS011;49206;48.020;21.378;2023-07-20T06:11:20;7.13;;;4.90;;
63112;SDS011;49206;48.020;21.378;2023-07-20T06:12:23;6.20;;;4.95;;
63112;SDS011;49206;48.020;21.378;2023-07-20T06:13:26;9.63;;;5.68;;
63112;SDS011;49206;48.020;21.378;2023-07-20T06:14:29;7.05;;;5.07;;
63112;SDS011;49206;48.020;21.378;2023-07-20T06:16:37;7.45;;;5.30;;
63112;SDS011;49206;48.020;21.378;2023-07-20T06:17:40;10.18;;;5.47;;
63112;SDS011;49206;48.020;21.378;2023-07-20T06:18:43;6.07;;;4.82;;
63112;SDS011;49206;48.020;21.378;2023-07-20T06:19:47;8.20;;;5.22;;
63112;SDS011;49206;48.020;21.378;2023-07-20T06:20:51;6.70;;;5.47;;
63112;SDS011;49206;48.020;21.378;2023-07-20T06:21:54;9.10;;;5.38;;
63112;SDS011;49206;48.020;21.378;2023-07-20T06:22:57;8.32;;;5.25;;
63112;SDS011;49206;48.020;21.378;2023-07-20T06:24:00;7.35;;;5.43;;
63112;SDS011;49206;48.020;21.378;2023-07-20T06:25:03;7.10;;;5.32;;
63112;SDS011;49206;48.020;21.378;2023-07-20T06:26:06;8.63;;;5.28;;
63112;SDS011;49206;48.020;21.378;2023-07-20T06:27:09;9.75;;;6.05;;
63112;SDS011;49206;48.020;21.378;2023-07-20T06:28:14;9.57;;;6.65;;
63112;SDS011;49206;48.020;21.378;2023-07-20T06:29:17;9.27;;;5.93;;
63112;SDS011;49206;48.020;21.378;2023-07-20T06:30:20;8.18;;;6.15;;